Impacts TAF Board
For situational awareness. Not to be used for flight planning purposes.
IDs:

KCLE - Cleveland/Hopkins In, OH, US

Issued at 0223 UTC 22 Oct 2018
Updated at 0511 UTC 22 Oct 2018
Potential Impact None Slight Moderate High
Time0451Z 22/06Z 22/07Z 22/08Z 22/09Z 22/10Z 22/11Z 22/12Z 22/13Z 22/14Z 22/15Z 22/16Z 22/17Z 22/18Z>>
Type OBS PRVL PRVL PRVL PRVL PRVL PRVL PRVL PRVL PRVL PRVL PRVL PRVL PRVL
VIS 10 >6 >6 >6 >6 >6 >6 >6 >6 >6 >6 >6 >6 >6
CIG 120 120 120 120 -- -- -- -- -- -- -- -- -- 50
Cover BKN BKN BKN BKN SCT SCT SCT SCT SCT SCT SCT SCT SCT BKN
FltCat VFR VFR VFR VFR VFR VFR VFR VFR VFR VFR VFR VFR VFR VFR
WX -- -- -- -- -- -- -- -- -- -- -- -- -- --
WDir 170 180 180 180 200 200 200 200 200 200 200 200 200 230
WSpd 7 6 6 6 6 6 6 6 6 6 6 6 6 11
WGst -- -- -- -- -- -- -- -- -- -- -- -- -- --
Raw TAF
KCLE 220223Z 2202/2306 18006KT P6SM SCT120
  FM220400 18006KT P6SM SCT080 BKN120
  FM220900 20006KT P6SM SCT120
  FM221800 23011KT P6SM BKN050
  FM230000 23008KT P6SM SCT120


Raw METAR
KCLE 220451Z 17007KT 10SM SCT100 BKN120 02/M01 A3020 RMK AO2 SLP231 T00221006 400670000 $
KCLE 220351Z 17005KT 10SM BKN130 02/M01 A3021 RMK AO2 SLP237 T00171011 $
KCLE 220251Z 17005KT 10SM BKN130 01/M01 A3022 RMK AO2 SLP241 T00111011 55004 $

METAR Board
Radar Display
Forecast Discussion
For situational awareness. Not to be used for flight planning purposes.